バンギ の空港の天気 - METARとTAF

バンギ・ムポコ国際空港 ( FEFF / BGF ) - 中央アフリカ バンギ
飛行場実況気象(Metar)
観測時間10/16 08:00 WAT (10/16 07:00 UTC)
風向・風速不定 1m/s
視程10km以上
天気現象
少しの雲 雲底高度 210m
気温24℃
湿度83%
気圧1014hPa
METARFEFF 160700Z VRB02KT 9999 FEW007 24/21 Q1014 NOSIG
過去の天気等 Google飛行場航空写真 Wunderground天気予報

過去48時間のMETAR

飛行場予報(TAF)
発表時間: 10/16 06:00 WAT (10/16 05:00 UTC)
予報対象時間: 16日7時 WAT ~ 17日13時 WAT
風向・風速不定 2m/s
視程10km以上
少しの雲 雲底高度 210m
16日7時 WAT ~ 16日9時 WAT に徐々に
全天の8割程度の雲 雲底高度 300m
16日11時 WAT ~ 16日13時 WAT に徐々に
全天の8割程度の雲 雲底高度 400m
少しの積乱雲 雲底高度 1010m
16日15時 WAT ~ 16日21時 WAT に 確率 30% で一時的に
天気現象雷雨
TAF FEFF 160500Z 1606/1712 VRB03KT 9999 FEW007
BECMG 1606/1608 BKN010
BECMG 1610/1612 BKN013 FEW033CB
PROB30 TEMPO 1614/1620 TSRA